sensor_id;sensor_type;location;lat;lon;timestamp;P1;P2;P0
56069;PMS5003;41944;52.078;-0.058;2023-04-15T00:00:41;12;11;
56069;PMS5003;41944;52.078;-0.058;2023-04-15T00:03:08;12;11;
56069;PMS5003;41944;52.078;-0.058;2023-04-15T00:05:35;9;9;
56069;PMS5003;41944;52.078;-0.058;2023-04-15T00:08:02;8;8;
56069;PMS5003;41944;52.078;-0.058;2023-04-15T00:10:29;9;8;
56069;PMS5003;41944;52.078;-0.058;2023-04-15T00:12:55;8;8;
56069;PMS5003;41944;52.078;-0.058;2023-04-15T00:15:22;8;8;
56069;PMS5003;41944;52.078;-0.058;2023-04-15T00:17:49;4;4;
56069;PMS5003;41944;52.078;-0.058;2023-04-15T00:20:17;6;6;
56069;PMS5003;41944;52.078;-0.058;2023-04-15T00:22:44;7;6;
56069;PMS5003;41944;52.078;-0.058;2023-04-15T00:25:10;5;5;
56069;PMS5003;41944;52.078;-0.058;2023-04-15T00:27:37;5;5;
56069;PMS5003;41944;52.078;-0.058;2023-04-15T00:30:05;6;6;
56069;PMS5003;41944;52.078;-0.058;2023-04-15T00:32:33;7;7;
56069;PMS5003;41944;52.078;-0.058;2023-04-15T00:35:00;10;7;
56069;PMS5003;41944;52.078;-0.058;2023-04-15T00:37:26;10;10;
56069;PMS5003;41944;52.078;-0.058;2023-04-15T00:39:53;9;8;
56069;PMS5003;41944;52.078;-0.058;2023-04-15T00:42:21;8;8;
56069;PMS5003;41944;52.078;-0.058;2023-04-15T00:44:48;8;6;
56069;PMS5003;41944;52.078;-0.058;2023-04-15T00:47:15;6;6;
56069;PMS5003;41944;52.078;-0.058;2023-04-15T00:49:43;4;4;
56069;PMS5003;41944;52.078;-0.058;2023-04-15T00:52:10;5;5;
56069;PMS5003;41944;52.078;-0.058;2023-04-15T00:54:37;5;5;
56069;PMS5003;41944;52.078;-0.058;2023-04-15T00:57:04;4;4;
56069;PMS5003;41944;52.078;-0.058;2023-04-15T00:59:32;5;5;
56069;PMS5003;41944;52.078;-0.058;2023-04-15T01:02:00;5;5;
56069;PMS5003;41944;52.078;-0.058;2023-04-15T01:04:27;6;6;
56069;PMS5003;41944;52.078;-0.058;2023-04-15T01:06:54;5;5;
56069;PMS5003;41944;52.078;-0.058;2023-04-15T01:09:21;6;5;
56069;PMS5003;41944;52.078;-0.058;2023-04-15T01:11:47;6;6;
56069;PMS5003;41944;52.078;-0.058;2023-04-15T01:14:15;7;7;
56069;PMS5003;41944;52.078;-0.058;2023-04-15T01:16:42;6;6;
56069;PMS5003;41944;52.078;-0.058;2023-04-15T01:19:09;7;5;
56069;PMS5003;41944;52.078;-0.058;2023-04-15T01:21:37;5;5;
56069;PMS5003;41944;52.078;-0.058;2023-04-15T01:24:07;6;6;
56069;PMS5003;41944;52.078;-0.058;2023-04-15T01:26:36;6;6;
56069;PMS5003;41944;52.078;-0.058;2023-04-15T01:29:04;8;8;
56069;PMS5003;41944;52.078;-0.058;2023-04-15T01:31:31;6;6;
56069;PMS5003;41944;52.078;-0.058;2023-04-15T01:33:59;8;8;
56069;PMS5003;41944;52.078;-0.058;2023-04-15T01:36:27;6;6;
56069;PMS5003;41944;52.078;-0.058;2023-04-15T01:38:54;7;7;
56069;PMS5003;41944;52.078;-0.058;2023-04-15T01:41:24;6;6;
56069;PMS5003;41944;52.078;-0.058;2023-04-15T01:43:52;8;8;
56069;PMS5003;41944;52.078;-0.058;2023-04-15T01:46:19;9;9;
56069;PMS5003;41944;52.078;-0.058;2023-04-15T01:48:45;8;8;
56069;PMS5003;41944;52.078;-0.058;2023-04-15T01:51:12;7;7;
56069;PMS5003;41944;52.078;-0.058;2023-04-15T01:53:39;8;8;
56069;PMS5003;41944;52.078;-0.058;2023-04-15T01:56:06;8;8;
56069;PMS5003;41944;52.078;-0.058;2023-04-15T01:58:33;11;10;
56069;PMS5003;41944;52.078;-0.058;2023-04-15T02:01:00;9;9;
56069;PMS5003;41944;52.078;-0.058;2023-04-15T02:03:27;6;6;
56069;PMS5003;41944;52.078;-0.058;2023-04-15T02:05:55;6;6;
56069;PMS5003;41944;52.078;-0.058;2023-04-15T02:08:22;9;9;
56069;PMS5003;41944;52.078;-0.058;2023-04-15T02:10:49;8;8;
56069;PMS5003;41944;52.078;-0.058;2023-04-15T02:13:16;8;6;
56069;PMS5003;41944;52.078;-0.058;2023-04-15T02:15:45;10;10;
56069;PMS5003;41944;52.078;-0.058;2023-04-15T02:18:13;8;8;
56069;PMS5003;41944;52.078;-0.058;2023-04-15T02:20:40;11;11;
56069;PMS5003;41944;52.078;-0.058;2023-04-15T02:23:07;15;13;
56069;PMS5003;41944;52.078;-0.058;2023-04-15T02:25:34;13;13;
56069;PMS5003;41944;52.078;-0.058;2023-04-15T02:28:01;12;10;
56069;PMS5003;41944;52.078;-0.058;2023-04-15T02:30:29;13;12;
56069;PMS5003;41944;52.078;-0.058;2023-04-15T02:32:56;11;11;
56069;PMS5003;41944;52.078;-0.058;2023-04-15T02:35:22;14;14;
56069;PMS5003;41944;52.078;-0.058;2023-04-15T02:37:50;14;13;
56069;PMS5003;41944;52.078;-0.058;2023-04-15T02:40:17;16;14;
56069;PMS5003;41944;52.078;-0.058;2023-04-15T02:42:44;21;17;
56069;PMS5003;41944;52.078;-0.058;2023-04-15T02:45:11;16;14;
56069;PMS5003;41944;52.078;-0.058;2023-04-15T02:47:39;20;19;
56069;PMS5003;41944;52.078;-0.058;2023-04-15T02:50:07;18;18;
56069;PMS5003;41944;52.078;-0.058;2023-04-15T02:52:35;16;14;
56069;PMS5003;41944;52.078;-0.058;2023-04-15T02:55:02;19;19;
56069;PMS5003;41944;52.078;-0.058;2023-04-15T02:57:30;17;16;
56069;PMS5003;41944;52.078;-0.058;2023-04-15T02:59:57;14;14;
56069;PMS5003;41944;52.078;-0.058;2023-04-15T03:02:24;16;14;
56069;PMS5003;41944;52.078;-0.058;2023-04-15T03:04:51;14;14;
56069;PMS5003;41944;52.078;-0.058;2023-04-15T03:07:18;15;13;
56069;PMS5003;41944;52.078;-0.058;2023-04-15T03:09:45;14;14;
56069;PMS5003;41944;52.078;-0.058;2023-04-15T03:12:12;14;12;
56069;PMS5003;41944;52.078;-0.058;2023-04-15T03:14:39;16;15;
56069;PMS5003;41944;52.078;-0.058;2023-04-15T03:17:06;17;17;
56069;PMS5003;41944;52.078;-0.058;2023-04-15T03:19:33;16;16;
56069;PMS5003;41944;52.078;-0.058;2023-04-15T03:22:00;20;17;
56069;PMS5003;41944;52.078;-0.058;2023-04-15T03:24:27;21;18;
56069;PMS5003;41944;52.078;-0.058;2023-04-15T03:26:54;20;18;
56069;PMS5003;41944;52.078;-0.058;2023-04-15T03:29:22;21;20;
56069;PMS5003;41944;52.078;-0.058;2023-04-15T03:31:50;20;19;
56069;PMS5003;41944;52.078;-0.058;2023-04-15T03:34:17;20;19;
56069;PMS5003;41944;52.078;-0.058;2023-04-15T03:36:45;20;19;
56069;PMS5003;41944;52.078;-0.058;2023-04-15T03:39:12;20;17;
56069;PMS5003;41944;52.078;-0.058;2023-04-15T03:41:39;17;16;
56069;PMS5003;41944;52.078;-0.058;2023-04-15T03:44:05;17;17;
56069;PMS5003;41944;52.078;-0.058;2023-04-15T03:46:32;20;20;
56069;PMS5003;41944;52.078;-0.058;2023-04-15T03:48:59;20;20;
56069;PMS5003;41944;52.078;-0.058;2023-04-15T03:51:27;19;19;
56069;PMS5003;41944;52.078;-0.058;2023-04-15T03:53:54;18;18;
56069;PMS5003;41944;52.078;-0.058;2023-04-15T03:56:21;18;18;
56069;PMS5003;41944;52.078;-0.058;2023-04-15T03:58:48;12;12;
56069;PMS5003;41944;52.078;-0.058;2023-04-15T04:01:15;18;15;
56069;PMS5003;41944;52.078;-0.058;2023-04-15T04:03:42;16;15;
56069;PMS5003;41944;52.078;-0.058;2023-04-15T04:06:09;18;17;
56069;PMS5003;41944;52.078;-0.058;2023-04-15T04:08:36;17;14;
56069;PMS5003;41944;52.078;-0.058;2023-04-15T04:11:03;18;16;
56069;PMS5003;41944;52.078;-0.058;2023-04-15T04:13:30;17;17;
56069;PMS5003;41944;52.078;-0.058;2023-04-15T04:15:58;14;14;
56069;PMS5003;41944;52.078;-0.058;2023-04-15T04:18:25;15;15;
56069;PMS5003;41944;52.078;-0.058;2023-04-15T04:20:52;15;14;
56069;PMS5003;41944;52.078;-0.058;2023-04-15T04:23:19;13;12;
56069;PMS5003;41944;52.078;-0.058;2023-04-15T04:25:45;16;16;
56069;PMS5003;41944;52.078;-0.058;2023-04-15T04:28:12;16;16;
56069;PMS5003;41944;52.078;-0.058;2023-04-15T04:30:40;18;16;
56069;PMS5003;41944;52.078;-0.058;2023-04-15T04:33:07;12;12;
56069;PMS5003;41944;52.078;-0.058;2023-04-15T04:35:34;12;12;
56069;PMS5003;41944;52.078;-0.058;2023-04-15T04:38:01;13;13;
56069;PMS5003;41944;52.078;-0.058;2023-04-15T04:40:28;15;14;
56069;PMS5003;41944;52.078;-0.058;2023-04-15T04:42:55;11;11;
56069;PMS5003;41944;52.078;-0.058;2023-04-15T04:45:22;14;12;
56069;PMS5003;41944;52.078;-0.058;2023-04-15T04:47:49;10;10;
56069;PMS5003;41944;52.078;-0.058;2023-04-15T04:50:16;10;10;
56069;PMS5003;41944;52.078;-0.058;2023-04-15T04:52:43;10;10;
56069;PMS5003;41944;52.078;-0.058;2023-04-15T04:55:10;13;13;
56069;PMS5003;41944;52.078;-0.058;2023-04-15T04:57:37;14;11;
56069;PMS5003;41944;52.078;-0.058;2023-04-15T05:00:04;15;12;
56069;PMS5003;41944;52.078;-0.058;2023-04-15T05:02:32;14;11;
56069;PMS5003;41944;52.078;-0.058;2023-04-15T05:05:00;12;12;
56069;PMS5003;41944;52.078;-0.058;2023-04-15T05:07:26;14;13;
56069;PMS5003;41944;52.078;-0.058;2023-04-15T05:09:53;14;14;
56069;PMS5003;41944;52.078;-0.058;2023-04-15T05:12:19;13;12;
56069;PMS5003;41944;52.078;-0.058;2023-04-15T05:14:46;16;13;
56069;PMS5003;41944;52.078;-0.058;2023-04-15T05:17:13;13;13;
56069;PMS5003;41944;52.078;-0.058;2023-04-15T05:19:40;14;13;
56069;PMS5003;41944;52.078;-0.058;2023-04-15T05:22:07;13;13;
56069;PMS5003;41944;52.078;-0.058;2023-04-15T05:24:34;13;13;
56069;PMS5003;41944;52.078;-0.058;2023-04-15T05:27:02;15;14;
56069;PMS5003;41944;52.078;-0.058;2023-04-15T05:29:28;11;11;
56069;PMS5003;41944;52.078;-0.058;2023-04-15T05:31:55;16;15;
56069;PMS5003;41944;52.078;-0.058;2023-04-15T05:34:22;17;17;
56069;PMS5003;41944;52.078;-0.058;2023-04-15T05:36:49;14;14;
56069;PMS5003;41944;52.078;-0.058;2023-04-15T05:39:17;15;13;
56069;PMS5003;41944;52.078;-0.058;2023-04-15T05:41:44;15;13;
56069;PMS5003;41944;52.078;-0.058;2023-04-15T05:44:11;17;17;
56069;PMS5003;41944;52.078;-0.058;2023-04-15T05:46:38;16;16;
56069;PMS5003;41944;52.078;-0.058;2023-04-15T05:49:04;17;17;
56069;PMS5003;41944;52.078;-0.058;2023-04-15T05:51:31;17;14;
56069;PMS5003;41944;52.078;-0.058;2023-04-15T05:53:58;17;17;
56069;PMS5003;41944;52.078;-0.058;2023-04-15T05:56:25;18;18;
56069;PMS5003;41944;52.078;-0.058;2023-04-15T05:58:53;17;17;
56069;PMS5003;41944;52.078;-0.058;2023-04-15T06:01:20;17;15;
56069;PMS5003;41944;52.078;-0.058;2023-04-15T06:03:47;18;17;
56069;PMS5003;41944;52.078;-0.058;2023-04-15T06:06:14;17;17;
56069;PMS5003;41944;52.078;-0.058;2023-04-15T06:08:41;24;22;
56069;PMS5003;41944;52.078;-0.058;2023-04-15T06:11:08;24;22;
56069;PMS5003;41944;52.078;-0.058;2023-04-15T06:13:34;24;21;
56069;PMS5003;41944;52.078;-0.058;2023-04-15T06:16:02;25;25;
56069;PMS5003;41944;52.078;-0.058;2023-04-15T06:18:29;24;22;
56069;PMS5003;41944;52.078;-0.058;2023-04-15T06:20:56;29;26;
56069;PMS5003;41944;52.078;-0.058;2023-04-15T06:23:23;25;23;
56069;PMS5003;41944;52.078;-0.058;2023-04-15T06:25:50;28;26;
56069;PMS5003;41944;52.078;-0.058;2023-04-15T06:28:17;30;29;
56069;PMS5003;41944;52.078;-0.058;2023-04-15T06:30:44;28;28;
56069;PMS5003;41944;52.078;-0.058;2023-04-15T06:33:11;27;27;
56069;PMS5003;41944;52.078;-0.058;2023-04-15T06:35:38;35;31;
56069;PMS5003;41944;52.078;-0.058;2023-04-15T06:38:05;26;26;
56069;PMS5003;41944;52.078;-0.058;2023-04-15T06:40:32;34;29;
56069;PMS5003;41944;52.078;-0.058;2023-04-15T06:42:59;30;27;
56069;PMS5003;41944;52.078;-0.058;2023-04-15T06:45:26;30;30;
56069;PMS5003;41944;52.078;-0.058;2023-04-15T06:47:53;31;27;
56069;PMS5003;41944;52.078;-0.058;2023-04-15T06:50:20;37;34;
56069;PMS5003;41944;52.078;-0.058;2023-04-15T06:52:47;28;26;
56069;PMS5003;41944;52.078;-0.058;2023-04-15T06:55:14;27;27;
56069;PMS5003;41944;52.078;-0.058;2023-04-15T06:57:40;30;28;
56069;PMS5003;41944;52.078;-0.058;2023-04-15T07:00:07;35;30;
56069;PMS5003;41944;52.078;-0.058;2023-04-15T07:02:35;28;28;
56069;PMS5003;41944;52.078;-0.058;2023-04-15T07:05:04;28;27;
56069;PMS5003;41944;52.078;-0.058;2023-04-15T07:07:31;27;27;
56069;PMS5003;41944;52.078;-0.058;2023-04-15T07:09:58;28;26;
56069;PMS5003;41944;52.078;-0.058;2023-04-15T07:12:25;30;30;
56069;PMS5003;41944;52.078;-0.058;2023-04-15T07:14:53;31;31;
56069;PMS5003;41944;52.078;-0.058;2023-04-15T07:17:20;25;24;
56069;PMS5003;41944;52.078;-0.058;2023-04-15T07:19:47;30;28;
56069;PMS5003;41944;52.078;-0.058;2023-04-15T07:22:14;32;32;
56069;PMS5003;41944;52.078;-0.058;2023-04-15T07:24:40;33;31;
56069;PMS5003;41944;52.078;-0.058;2023-04-15T07:27:08;35;32;
56069;PMS5003;41944;52.078;-0.058;2023-04-15T07:29:35;29;27;
56069;PMS5003;41944;52.078;-0.058;2023-04-15T07:32:02;31;29;
56069;PMS5003;41944;52.078;-0.058;2023-04-15T07:34:29;33;31;
56069;PMS5003;41944;52.078;-0.058;2023-04-15T07:36:56;31;31;
56069;PMS5003;41944;52.078;-0.058;2023-04-15T07:39:24;27;27;
56069;PMS5003;41944;52.078;-0.058;2023-04-15T07:41:50;32;31;
56069;PMS5003;41944;52.078;-0.058;2023-04-15T07:44:18;31;26;
56069;PMS5003;41944;52.078;-0.058;2023-04-15T07:46:45;33;33;
56069;PMS5003;41944;52.078;-0.058;2023-04-15T07:49:12;34;31;
56069;PMS5003;41944;52.078;-0.058;2023-04-15T07:51:39;28;27;
56069;PMS5003;41944;52.078;-0.058;2023-04-15T07:54:06;30;27;
56069;PMS5003;41944;52.078;-0.058;2023-04-15T07:56:33;28;27;
56069;PMS5003;41944;52.078;-0.058;2023-04-15T07:59:00;30;29;
56069;PMS5003;41944;52.078;-0.058;2023-04-15T08:01:26;27;25;
56069;PMS5003;41944;52.078;-0.058;2023-04-15T08:03:54;36;35;
56069;PMS5003;41944;52.078;-0.058;2023-04-15T08:06:21;32;31;
56069;PMS5003;41944;52.078;-0.058;2023-04-15T08:08:48;32;29;
56069;PMS5003;41944;52.078;-0.058;2023-04-15T08:11:15;34;30;
56069;PMS5003;41944;52.078;-0.058;2023-04-15T08:13:42;30;28;
56069;PMS5003;41944;52.078;-0.058;2023-04-15T08:16:15;33;29;
56069;PMS5003;41944;52.078;-0.058;2023-04-15T08:18:43;31;30;
56069;PMS5003;41944;52.078;-0.058;2023-04-15T08:21:10;33;32;
56069;PMS5003;41944;52.078;-0.058;2023-04-15T08:23:38;34;32;
56069;PMS5003;41944;52.078;-0.058;2023-04-15T08:26:05;27;27;
56069;PMS5003;41944;52.078;-0.058;2023-04-15T08:28:32;32;28;
56069;PMS5003;41944;52.078;-0.058;2023-04-15T08:30:59;38;32;
56069;PMS5003;41944;52.078;-0.058;2023-04-15T08:33:27;33;31;
56069;PMS5003;41944;52.078;-0.058;2023-04-15T08:35:54;38;37;
56069;PMS5003;41944;52.078;-0.058;2023-04-15T08:38:21;37;35;
56069;PMS5003;41944;52.078;-0.058;2023-04-15T08:40:48;31;29;
56069;PMS5003;41944;52.078;-0.058;2023-04-15T08:43:17;33;28;
56069;PMS5003;41944;52.078;-0.058;2023-04-15T08:45:47;32;31;
56069;PMS5003;41944;52.078;-0.058;2023-04-15T08:48:17;29;26;
56069;PMS5003;41944;52.078;-0.058;2023-04-15T08:50:45;31;30;
56069;PMS5003;41944;52.078;-0.058;2023-04-15T08:53:13;31;29;
56069;PMS5003;41944;52.078;-0.058;2023-04-15T08:55:41;26;26;
56069;PMS5003;41944;52.078;-0.058;2023-04-15T08:58:09;27;24;
56069;PMS5003;41944;52.078;-0.058;2023-04-15T09:00:38;31;30;
56069;PMS5003;41944;52.078;-0.058;2023-04-15T09:03:05;36;34;
56069;PMS5003;41944;52.078;-0.058;2023-04-15T09:05:34;31;26;
56069;PMS5003;41944;52.078;-0.058;2023-04-15T09:08:02;26;26;
56069;PMS5003;41944;52.078;-0.058;2023-04-15T09:10:30;28;26;
56069;PMS5003;41944;52.078;-0.058;2023-04-15T09:12:58;29;29;
56069;PMS5003;41944;52.078;-0.058;2023-04-15T09:15:26;23;23;
56069;PMS5003;41944;52.078;-0.058;2023-04-15T09:17:53;23;22;
56069;PMS5003;41944;52.078;-0.058;2023-04-15T09:20:21;25;21;
56069;PMS5003;41944;52.078;-0.058;2023-04-15T09:22:48;23;21;
56069;PMS5003;41944;52.078;-0.058;2023-04-15T09:25:31;22;21;
56069;PMS5003;41944;52.078;-0.058;2023-04-15T09:27:59;25;23;
56069;PMS5003;41944;52.078;-0.058;2023-04-15T09:30:27;22;21;
56069;PMS5003;41944;52.078;-0.058;2023-04-15T09:32:55;23;21;
56069;PMS5003;41944;52.078;-0.058;2023-04-15T09:35:24;29;27;
56069;PMS5003;41944;52.078;-0.058;2023-04-15T09:37:53;27;24;
56069;PMS5003;41944;52.078;-0.058;2023-04-15T09:40:30;21;20;
56069;PMS5003;41944;52.078;-0.058;2023-04-15T09:42:58;17;17;
56069;PMS5003;41944;52.078;-0.058;2023-04-15T09:45:25;15;15;
56069;PMS5003;41944;52.078;-0.058;2023-04-15T09:47:53;17;16;
56069;PMS5003;41944;52.078;-0.058;2023-04-15T09:50:20;17;17;
56069;PMS5003;41944;52.078;-0.058;2023-04-15T09:52:47;20;19;
56069;PMS5003;41944;52.078;-0.058;2023-04-15T09:55:14;21;19;
56069;PMS5003;41944;52.078;-0.058;2023-04-15T09:57:44;21;18;
56069;PMS5003;41944;52.078;-0.058;2023-04-15T10:00:12;18;17;
56069;PMS5003;41944;52.078;-0.058;2023-04-15T10:02:40;17;17;
56069;PMS5003;41944;52.078;-0.058;2023-04-15T10:05:09;16;16;
56069;PMS5003;41944;52.078;-0.058;2023-04-15T10:07:38;20;17;
56069;PMS5003;41944;52.078;-0.058;2023-04-15T10:10:06;17;16;
56069;PMS5003;41944;52.078;-0.058;2023-04-15T10:12:33;18;16;
56069;PMS5003;41944;52.078;-0.058;2023-04-15T10:15:04;17;16;
56069;PMS5003;41944;52.078;-0.058;2023-04-15T10:17:32;16;16;
56069;PMS5003;41944;52.078;-0.058;2023-04-15T10:20:00;19;18;
56069;PMS5003;41944;52.078;-0.058;2023-04-15T10:22:28;17;15;
56069;PMS5003;41944;52.078;-0.058;2023-04-15T10:24:57;16;16;
56069;PMS5003;41944;52.078;-0.058;2023-04-15T10:27:24;14;14;
56069;PMS5003;41944;52.078;-0.058;2023-04-15T10:29:52;13;13;
56069;PMS5003;41944;52.078;-0.058;2023-04-15T10:32:20;16;14;
56069;PMS5003;41944;52.078;-0.058;2023-04-15T10:34:51;15;13;
56069;PMS5003;41944;52.078;-0.058;2023-04-15T10:37:19;16;15;
56069;PMS5003;41944;52.078;-0.058;2023-04-15T10:39:47;12;12;
56069;PMS5003;41944;52.078;-0.058;2023-04-15T10:42:15;15;14;
56069;PMS5003;41944;52.078;-0.058;2023-04-15T10:44:43;11;11;
56069;PMS5003;41944;52.078;-0.058;2023-04-15T10:47:14;20;14;
56069;PMS5003;41944;52.078;-0.058;2023-04-15T10:49:43;15;15;
56069;PMS5003;41944;52.078;-0.058;2023-04-15T10:52:13;15;15;
56069;PMS5003;41944;52.078;-0.058;2023-04-15T10:54:41;14;13;
56069;PMS5003;41944;52.078;-0.058;2023-04-15T10:57:13;11;11;
56069;PMS5003;41944;52.078;-0.058;2023-04-15T10:59:59;16;13;
56069;PMS5003;41944;52.078;-0.058;2023-04-15T11:02:46;13;10;
56069;PMS5003;41944;52.078;-0.058;2023-04-15T11:05:19;13;12;
56069;PMS5003;41944;52.078;-0.058;2023-04-15T11:07:48;14;13;
56069;PMS5003;41944;52.078;-0.058;2023-04-15T11:10:51;17;12;
56069;PMS5003;41944;52.078;-0.058;2023-04-15T11:13:20;14;13;
56069;PMS5003;41944;52.078;-0.058;2023-04-15T11:15:49;14;11;
56069;PMS5003;41944;52.078;-0.058;2023-04-15T11:18:16;14;11;
56069;PMS5003;41944;52.078;-0.058;2023-04-15T11:20:45;16;13;
56069;PMS5003;41944;52.078;-0.058;2023-04-15T11:23:13;13;13;
56069;PMS5003;41944;52.078;-0.058;2023-04-15T11:25:41;18;15;
56069;PMS5003;41944;52.078;-0.058;2023-04-15T11:28:08;19;15;
56069;PMS5003;41944;52.078;-0.058;2023-04-15T11:30:36;15;14;
56069;PMS5003;41944;52.078;-0.058;2023-04-15T11:33:04;19;14;
56069;PMS5003;41944;52.078;-0.058;2023-04-15T11:35:33;10;9;
56069;PMS5003;41944;52.078;-0.058;2023-04-15T11:38:02;11;10;
56069;PMS5003;41944;52.078;-0.058;2023-04-15T11:40:30;13;13;
56069;PMS5003;41944;52.078;-0.058;2023-04-15T11:43:06;15;12;
56069;PMS5003;41944;52.078;-0.058;2023-04-15T11:45:34;14;10;
56069;PMS5003;41944;52.078;-0.058;2023-04-15T11:48:04;17;12;
56069;PMS5003;41944;52.078;-0.058;2023-04-15T11:50:32;10;10;
56069;PMS5003;41944;52.078;-0.058;2023-04-15T11:53:00;14;13;
56069;PMS5003;41944;52.078;-0.058;2023-04-15T11:55:28;12;12;
56069;PMS5003;41944;52.078;-0.058;2023-04-15T11:58:12;13;13;
56069;PMS5003;41944;52.078;-0.058;2023-04-15T12:00:45;11;9;
56069;PMS5003;41944;52.078;-0.058;2023-04-15T12:03:17;9;9;
56069;PMS5003;41944;52.078;-0.058;2023-04-15T12:06:03;10;9;
56069;PMS5003;41944;52.078;-0.058;2023-04-15T12:08:47;11;10;
56069;PMS5003;41944;52.078;-0.058;2023-04-15T12:11:16;11;11;
56069;PMS5003;41944;52.078;-0.058;2023-04-15T12:13:45;11;10;
56069;PMS5003;41944;52.078;-0.058;2023-04-15T12:16:15;9;9;
56069;PMS5003;41944;52.078;-0.058;2023-04-15T12:18:44;10;9;
56069;PMS5003;41944;52.078;-0.058;2023-04-15T12:21:12;12;12;
56069;PMS5003;41944;52.078;-0.058;2023-04-15T12:23:39;17;15;
56069;PMS5003;41944;52.078;-0.058;2023-04-15T12:26:14;13;11;
56069;PMS5003;41944;52.078;-0.058;2023-04-15T12:28:40;19;12;
56069;PMS5003;41944;52.078;-0.058;2023-04-15T12:31:08;20;12;
56069;PMS5003;41944;52.078;-0.058;2023-04-15T12:33:36;14;10;
56069;PMS5003;41944;52.078;-0.058;2023-04-15T12:36:03;12;12;
56069;PMS5003;41944;52.078;-0.058;2023-04-15T12:38:30;15;13;
56069;PMS5003;41944;52.078;-0.058;2023-04-15T12:40:57;11;11;
56069;PMS5003;41944;52.078;-0.058;2023-04-15T12:43:24;10;10;
56069;PMS5003;41944;52.078;-0.058;2023-04-15T12:45:51;13;11;
56069;PMS5003;41944;52.078;-0.058;2023-04-15T12:48:18;11;9;
56069;PMS5003;41944;52.078;-0.058;2023-04-15T12:50:50;9;9;
56069;PMS5003;41944;52.078;-0.058;2023-04-15T12:53:17;11;9;
56069;PMS5003;41944;52.078;-0.058;2023-04-15T12:55:46;10;9;
56069;PMS5003;41944;52.078;-0.058;2023-04-15T12:58:13;10;9;
56069;PMS5003;41944;52.078;-0.058;2023-04-15T13:00:41;11;10;
56069;PMS5003;41944;52.078;-0.058;2023-04-15T13:03:08;14;10;
56069;PMS5003;41944;52.078;-0.058;2023-04-15T13:05:34;29;16;
56069;PMS5003;41944;52.078;-0.058;2023-04-15T13:08:02;11;8;
56069;PMS5003;41944;52.078;-0.058;2023-04-15T13:10:30;11;11;
56069;PMS5003;41944;52.078;-0.058;2023-04-15T13:12:57;9;8;
56069;PMS5003;41944;52.078;-0.058;2023-04-15T13:15:24;10;10;
56069;PMS5003;41944;52.078;-0.058;2023-04-15T13:17:51;11;8;
56069;PMS5003;41944;52.078;-0.058;2023-04-15T13:20:18;11;8;
56069;PMS5003;41944;52.078;-0.058;2023-04-15T13:22:45;10;8;
56069;PMS5003;41944;52.078;-0.058;2023-04-15T13:25:12;8;8;
56069;PMS5003;41944;52.078;-0.058;2023-04-15T13:27:39;14;10;
56069;PMS5003;41944;52.078;-0.058;2023-04-15T13:30:06;11;10;
56069;PMS5003;41944;52.078;-0.058;2023-04-15T13:32:33;11;11;
56069;PMS5003;41944;52.078;-0.058;2023-04-15T13:35:00;12;9;
56069;PMS5003;41944;52.078;-0.058;2023-04-15T13:37:28;13;11;
56069;PMS5003;41944;52.078;-0.058;2023-04-15T13:39:55;11;8;
56069;PMS5003;41944;52.078;-0.058;2023-04-15T13:42:23;12;10;
56069;PMS5003;41944;52.078;-0.058;2023-04-15T13:44:50;10;8;
56069;PMS5003;41944;52.078;-0.058;2023-04-15T13:47:17;8;8;
56069;PMS5003;41944;52.078;-0.058;2023-04-15T13:49:45;9;8;
56069;PMS5003;41944;52.078;-0.058;2023-04-15T13:52:12;10;10;
56069;PMS5003;41944;52.078;-0.058;2023-04-15T13:54:39;13;9;
56069;PMS5003;41944;52.078;-0.058;2023-04-15T13:57:06;10;7;
56069;PMS5003;41944;52.078;-0.058;2023-04-15T13:59:33;9;9;
56069;PMS5003;41944;52.078;-0.058;2023-04-15T14:02:00;10;9;
56069;PMS5003;41944;52.078;-0.058;2023-04-15T14:04:27;9;9;
56069;PMS5003;41944;52.078;-0.058;2023-04-15T14:06:54;10;10;
56069;PMS5003;41944;52.078;-0.058;2023-04-15T14:09:21;9;9;
56069;PMS5003;41944;52.078;-0.058;2023-04-15T14:11:48;11;7;
56069;PMS5003;41944;52.078;-0.058;2023-04-15T14:14:15;8;8;
56069;PMS5003;41944;52.078;-0.058;2023-04-15T14:16:42;9;8;
56069;PMS5003;41944;52.078;-0.058;2023-04-15T14:19:09;9;9;
56069;PMS5003;41944;52.078;-0.058;2023-04-15T14:21:36;7;7;
56069;PMS5003;41944;52.078;-0.058;2023-04-15T14:24:03;11;10;
56069;PMS5003;41944;52.078;-0.058;2023-04-15T14:26:30;10;10;
56069;PMS5003;41944;52.078;-0.058;2023-04-15T14:28:57;8;8;
56069;PMS5003;41944;52.078;-0.058;2023-04-15T14:31:25;8;8;
56069;PMS5003;41944;52.078;-0.058;2023-04-15T14:33:52;15;12;
56069;PMS5003;41944;52.078;-0.058;2023-04-15T14:36:18;13;10;
56069;PMS5003;41944;52.078;-0.058;2023-04-15T14:38:45;10;10;
56069;PMS5003;41944;52.078;-0.058;2023-04-15T14:41:12;13;11;
56069;PMS5003;41944;52.078;-0.058;2023-04-15T14:43:39;11;11;
56069;PMS5003;41944;52.078;-0.058;2023-04-15T14:46:06;11;10;
56069;PMS5003;41944;52.078;-0.058;2023-04-15T14:48:33;10;9;
56069;PMS5003;41944;52.078;-0.058;2023-04-15T14:51:00;11;10;
56069;PMS5003;41944;52.078;-0.058;2023-04-15T14:53:27;12;12;
56069;PMS5003;41944;52.078;-0.058;2023-04-15T14:55:53;14;12;
56069;PMS5003;41944;52.078;-0.058;2023-04-15T14:58:21;10;9;
56069;PMS5003;41944;52.078;-0.058;2023-04-15T15:00:48;16;14;
56069;PMS5003;41944;52.078;-0.058;2023-04-15T15:03:15;9;9;
56069;PMS5003;41944;52.078;-0.058;2023-04-15T15:05:43;14;14;
56069;PMS5003;41944;52.078;-0.058;2023-04-15T15:08:11;15;14;
56069;PMS5003;41944;52.078;-0.058;2023-04-15T15:10:38;10;10;
56069;PMS5003;41944;52.078;-0.058;2023-04-15T15:13:06;13;11;
56069;PMS5003;41944;52.078;-0.058;2023-04-15T15:15:36;10;10;
56069;PMS5003;41944;52.078;-0.058;2023-04-15T15:18:03;12;12;
56069;PMS5003;41944;52.078;-0.058;2023-04-15T15:20:31;12;11;
56069;PMS5003;41944;52.078;-0.058;2023-04-15T15:22:58;13;12;
56069;PMS5003;41944;52.078;-0.058;2023-04-15T15:25:25;17;14;
56069;PMS5003;41944;52.078;-0.058;2023-04-15T15:27:52;13;13;
56069;PMS5003;41944;52.078;-0.058;2023-04-15T15:30:20;12;12;
56069;PMS5003;41944;52.078;-0.058;2023-04-15T15:32:47;15;13;
56069;PMS5003;41944;52.078;-0.058;2023-04-15T15:35:14;19;16;
56069;PMS5003;41944;52.078;-0.058;2023-04-15T15:37:41;20;18;
56069;PMS5003;41944;52.078;-0.058;2023-04-15T15:40:08;15;14;
56069;PMS5003;41944;52.078;-0.058;2023-04-15T15:42:36;16;16;
56069;PMS5003;41944;52.078;-0.058;2023-04-15T15:45:04;19;16;
56069;PMS5003;41944;52.078;-0.058;2023-04-15T15:47:32;16;15;
56069;PMS5003;41944;52.078;-0.058;2023-04-15T15:49:59;15;15;
56069;PMS5003;41944;52.078;-0.058;2023-04-15T15:52:26;17;16;
56069;PMS5003;41944;52.078;-0.058;2023-04-15T15:54:53;15;14;
56069;PMS5003;41944;52.078;-0.058;2023-04-15T15:57:21;17;15;
56069;PMS5003;41944;52.078;-0.058;2023-04-15T15:59:47;13;13;
56069;PMS5003;41944;52.078;-0.058;2023-04-15T16:02:14;14;12;
56069;PMS5003;41944;52.078;-0.058;2023-04-15T16:04:41;16;14;
56069;PMS5003;41944;52.078;-0.058;2023-04-15T16:07:08;16;13;
56069;PMS5003;41944;52.078;-0.058;2023-04-15T16:09:36;12;12;
56069;PMS5003;41944;52.078;-0.058;2023-04-15T16:12:03;18;16;